Startpagina
METAR-TAF:

METAR-TAF

Vliegvelden :

Amman, Jordanië

breedte: 31-59N, lengte: 035-59E, hoogte: 767 m

Actueel weer

Dit bericht is 20 minuten geleden gemaakt, om 05:00 UTC
Wind 6 kt uit het westen
Temperatuur 22°C
Vochtigheid 53%
Druk 1014 hPa
Zicht: 5000 m
Heiigheid

METAR: OJAM 190500Z 26006KT 5000 HZ NSC 22/12 Q1014 NOSIG

Tijdstip: 08:20 (05:20 UTC)

Verwachting

Dit bericht is 6 uur en het 26 minuten geleden gemaakt, om 22:54 UTC
Verwachting geldig van 19 om 00 UTC tot 20 om 06 UTC
Wind 3 kt uit het westnoordwesten
Zicht: 6000 m
Weinig wolken op 4000 ft
Kans 40%
van 19 om 02 UTC tot 19 om 06 UTC
Zicht: 4000 m
rook
Wijzigt naar
van 19 om 06 UTC tot 19 om 08 UTC
Wind 14 kt uit het westen
Zicht: 5000 m
Verspreide wolken op 3000 ft
Heiigheid

TAF: OJAM 182254Z 1900/2006 30003KT 6000 FEW040 PROB40 1902/1906 4000 FU BECMG 1906/1908 28014KT 5000 HZ SCT030

Waarnemingen en weersverwachtingen van meer dan 4000 vliegvelden (METAR en TAF).

De beschikbare stations zijn de gele en rode punten op de kaart.

Ga met uw muis naar het station om de naam te zien.

Klik dan om waarnemingen en weersverwachtingen te zien.

kaart wijzigen: klik op de groene knoppen met een zwart kruis om in te zoomen, op de groene knop met een streepje om uit te zoomen of op de groene pijlen voor aangrenzende kaarten.


METAR-TAF: